sensor_id;sensor_type;location;lat;lon;timestamp;P1;durP1;ratioP1;P2;durP2;ratioP2
16973;SDS011;8603;46.944;7.412;2023-04-22T00:00:27;14.10;;;10.50;;
16973;SDS011;8603;46.944;7.412;2023-04-22T00:02:53;14.90;;;9.87;;
16973;SDS011;8603;46.944;7.412;2023-04-22T00:05:20;16.17;;;12.20;;
16973;SDS011;8603;46.944;7.412;2023-04-22T00:07:46;14.00;;;11.27;;
16973;SDS011;8603;46.944;7.412;2023-04-22T00:10:11;14.80;;;10.47;;
16973;SDS011;8603;46.944;7.412;2023-04-22T00:12:43;16.27;;;11.57;;
16973;SDS011;8603;46.944;7.412;2023-04-22T00:15:19;13.80;;;9.97;;
16973;SDS011;8603;46.944;7.412;2023-04-22T00:17:49;13.63;;;9.83;;
16973;SDS011;8603;46.944;7.412;2023-04-22T00:20:33;13.93;;;11.07;;
16973;SDS011;8603;46.944;7.412;2023-04-22T00:26:16;13.87;;;10.80;;
16973;SDS011;8603;46.944;7.412;2023-04-22T00:29:12;13.67;;;10.07;;
16973;SDS011;8603;46.944;7.412;2023-04-22T00:32:37;17.77;;;12.17;;
16973;SDS011;8603;46.944;7.412;2023-04-22T00:35:03;14.03;;;11.17;;
16973;SDS011;8603;46.944;7.412;2023-04-22T00:37:30;18.17;;;11.70;;
16973;SDS011;8603;46.944;7.412;2023-04-22T00:39:56;14.20;;;11.50;;
16973;SDS011;8603;46.944;7.412;2023-04-22T00:42:22;14.47;;;11.90;;
16973;SDS011;8603;46.944;7.412;2023-04-22T00:44:48;17.33;;;12.10;;
16973;SDS011;8603;46.944;7.412;2023-04-22T00:47:16;15.73;;;11.90;;
16973;SDS011;8603;46.944;7.412;2023-04-22T00:49:41;14.60;;;11.37;;
16973;SDS011;8603;46.944;7.412;2023-04-22T00:52:08;14.90;;;11.77;;
16973;SDS011;8603;46.944;7.412;2023-04-22T00:54:34;15.47;;;11.27;;
16973;SDS011;8603;46.944;7.412;2023-04-22T00:57:01;14.93;;;11.57;;
16973;SDS011;8603;46.944;7.412;2023-04-22T00:59:28;13.17;;;10.60;;
16973;SDS011;8603;46.944;7.412;2023-04-22T01:01:54;13.63;;;10.23;;
16973;SDS011;8603;46.944;7.412;2023-04-22T01:04:20;12.73;;;10.00;;
16973;SDS011;8603;46.944;7.412;2023-04-22T01:06:47;12.40;;;9.40;;
16973;SDS011;8603;46.944;7.412;2023-04-22T01:09:15;11.60;;;9.50;;
16973;SDS011;8603;46.944;7.412;2023-04-22T01:11:43;12.47;;;9.60;;
16973;SDS011;8603;46.944;7.412;2023-04-22T01:14:10;11.23;;;8.73;;
16973;SDS011;8603;46.944;7.412;2023-04-22T01:16:36;11.03;;;9.33;;
16973;SDS011;8603;46.944;7.412;2023-04-22T01:19:03;12.77;;;9.53;;
16973;SDS011;8603;46.944;7.412;2023-04-22T01:21:30;11.77;;;8.83;;
16973;SDS011;8603;46.944;7.412;2023-04-22T01:23:57;12.73;;;9.23;;
16973;SDS011;8603;46.944;7.412;2023-04-22T01:26:24;11.80;;;8.57;;
16973;SDS011;8603;46.944;7.412;2023-04-22T01:28:50;11.03;;;8.73;;
16973;SDS011;8603;46.944;7.412;2023-04-22T01:31:16;11.40;;;8.67;;
16973;SDS011;8603;46.944;7.412;2023-04-22T01:33:42;11.93;;;9.20;;
16973;SDS011;8603;46.944;7.412;2023-04-22T01:36:09;12.23;;;8.60;;
16973;SDS011;8603;46.944;7.412;2023-04-22T01:38:36;11.33;;;9.23;;
16973;SDS011;8603;46.944;7.412;2023-04-22T01:41:01;12.70;;;8.77;;
16973;SDS011;8603;46.944;7.412;2023-04-22T01:43:28;13.33;;;9.07;;
16973;SDS011;8603;46.944;7.412;2023-04-22T01:45:55;10.43;;;8.80;;
16973;SDS011;8603;46.944;7.412;2023-04-22T01:48:22;13.50;;;9.17;;
16973;SDS011;8603;46.944;7.412;2023-04-22T01:50:48;14.37;;;9.20;;
16973;SDS011;8603;46.944;7.412;2023-04-22T01:53:14;12.50;;;8.50;;
16973;SDS011;8603;46.944;7.412;2023-04-22T01:55:40;11.70;;;8.77;;
16973;SDS011;8603;46.944;7.412;2023-04-22T01:58:07;12.07;;;9.00;;
16973;SDS011;8603;46.944;7.412;2023-04-22T02:00:32;14.70;;;9.33;;
16973;SDS011;8603;46.944;7.412;2023-04-22T02:02:58;11.70;;;8.47;;
16973;SDS011;8603;46.944;7.412;2023-04-22T02:05:24;10.83;;;8.30;;
16973;SDS011;8603;46.944;7.412;2023-04-22T02:07:51;10.80;;;8.17;;
16973;SDS011;8603;46.944;7.412;2023-04-22T02:10:17;11.60;;;8.13;;
16973;SDS011;8603;46.944;7.412;2023-04-22T02:12:43;11.00;;;8.07;;
16973;SDS011;8603;46.944;7.412;2023-04-22T02:15:09;12.40;;;8.87;;
16973;SDS011;8603;46.944;7.412;2023-04-22T02:17:35;11.80;;;8.33;;
16973;SDS011;8603;46.944;7.412;2023-04-22T02:20:02;9.87;;;7.20;;
16973;SDS011;8603;46.944;7.412;2023-04-22T02:22:29;10.73;;;8.40;;
16973;SDS011;8603;46.944;7.412;2023-04-22T02:24:55;10.97;;;7.97;;
16973;SDS011;8603;46.944;7.412;2023-04-22T02:27:21;8.83;;;7.47;;
16973;SDS011;8603;46.944;7.412;2023-04-22T02:29:47;12.00;;;8.37;;
16973;SDS011;8603;46.944;7.412;2023-04-22T02:32:12;11.03;;;8.67;;
16973;SDS011;8603;46.944;7.412;2023-04-22T02:34:39;10.70;;;8.67;;
16973;SDS011;8603;46.944;7.412;2023-04-22T02:37:05;10.87;;;8.67;;
16973;SDS011;8603;46.944;7.412;2023-04-22T02:39:30;9.80;;;7.73;;
16973;SDS011;8603;46.944;7.412;2023-04-22T02:41:56;10.63;;;7.93;;
16973;SDS011;8603;46.944;7.412;2023-04-22T02:44:22;10.13;;;7.80;;
16973;SDS011;8603;46.944;7.412;2023-04-22T02:46:47;10.33;;;7.70;;
16973;SDS011;8603;46.944;7.412;2023-04-22T02:49:13;10.20;;;7.50;;
16973;SDS011;8603;46.944;7.412;2023-04-22T02:51:39;10.30;;;6.90;;
16973;SDS011;8603;46.944;7.412;2023-04-22T02:54:04;10.63;;;7.37;;
16973;SDS011;8603;46.944;7.412;2023-04-22T02:56:30;9.33;;;6.53;;
16973;SDS011;8603;46.944;7.412;2023-04-22T02:58:56;10.07;;;7.47;;
16973;SDS011;8603;46.944;7.412;2023-04-22T03:01:21;9.27;;;7.03;;
16973;SDS011;8603;46.944;7.412;2023-04-22T03:03:47;8.73;;;6.70;;
16973;SDS011;8603;46.944;7.412;2023-04-22T03:06:13;9.70;;;6.63;;
16973;SDS011;8603;46.944;7.412;2023-04-22T03:08:39;10.10;;;7.63;;
16973;SDS011;8603;46.944;7.412;2023-04-22T03:11:04;14.60;;;9.33;;
16973;SDS011;8603;46.944;7.412;2023-04-22T03:13:30;13.70;;;8.87;;
16973;SDS011;8603;46.944;7.412;2023-04-22T03:15:56;13.23;;;9.33;;
16973;SDS011;8603;46.944;7.412;2023-04-22T03:18:22;14.83;;;9.93;;
16973;SDS011;8603;46.944;7.412;2023-04-22T03:20:48;13.40;;;9.13;;
16973;SDS011;8603;46.944;7.412;2023-04-22T03:23:13;12.23;;;9.00;;
16973;SDS011;8603;46.944;7.412;2023-04-22T03:25:39;13.67;;;8.97;;
16973;SDS011;8603;46.944;7.412;2023-04-22T03:28:05;11.30;;;8.93;;
16973;SDS011;8603;46.944;7.412;2023-04-22T03:30:31;12.40;;;9.17;;
16973;SDS011;8603;46.944;7.412;2023-04-22T03:32:56;14.77;;;9.40;;
16973;SDS011;8603;46.944;7.412;2023-04-22T03:35:22;15.87;;;10.67;;
16973;SDS011;8603;46.944;7.412;2023-04-22T03:37:48;26.03;;;10.30;;
16973;SDS011;8603;46.944;7.412;2023-04-22T03:40:14;12.47;;;9.60;;
16973;SDS011;8603;46.944;7.412;2023-04-22T03:42:40;12.67;;;9.70;;
16973;SDS011;8603;46.944;7.412;2023-04-22T03:45:06;15.70;;;10.30;;
16973;SDS011;8603;46.944;7.412;2023-04-22T03:47:31;20.83;;;10.10;;
16973;SDS011;8603;46.944;7.412;2023-04-22T03:49:57;12.27;;;9.87;;
16973;SDS011;8603;46.944;7.412;2023-04-22T03:52:23;14.43;;;10.07;;
16973;SDS011;8603;46.944;7.412;2023-04-22T03:54:48;51.43;;;10.77;;
16973;SDS011;8603;46.944;7.412;2023-04-22T03:57:14;12.63;;;9.20;;
16973;SDS011;8603;46.944;7.412;2023-04-22T03:59:40;41.23;;;12.33;;
16973;SDS011;8603;46.944;7.412;2023-04-22T04:02:05;14.80;;;10.10;;
16973;SDS011;8603;46.944;7.412;2023-04-22T04:04:32;11.43;;;8.97;;
16973;SDS011;8603;46.944;7.412;2023-04-22T04:06:59;13.40;;;9.70;;
16973;SDS011;8603;46.944;7.412;2023-04-22T04:09:25;12.70;;;9.93;;
16973;SDS011;8603;46.944;7.412;2023-04-22T04:11:51;14.33;;;9.10;;
16973;SDS011;8603;46.944;7.412;2023-04-22T04:14:17;41.53;;;11.40;;
16973;SDS011;8603;46.944;7.412;2023-04-22T04:16:43;14.67;;;10.13;;
16973;SDS011;8603;46.944;7.412;2023-04-22T04:19:08;12.23;;;8.57;;
16973;SDS011;8603;46.944;7.412;2023-04-22T04:21:34;18.43;;;8.60;;
16973;SDS011;8603;46.944;7.412;2023-04-22T04:24:00;17.73;;;8.47;;
16973;SDS011;8603;46.944;7.412;2023-04-22T04:26:27;14.73;;;8.13;;
16973;SDS011;8603;46.944;7.412;2023-04-22T04:28:52;11.37;;;7.77;;
16973;SDS011;8603;46.944;7.412;2023-04-22T04:31:19;10.97;;;8.13;;
16973;SDS011;8603;46.944;7.412;2023-04-22T04:33:45;15.07;;;8.40;;
16973;SDS011;8603;46.944;7.412;2023-04-22T04:36:11;38.10;;;8.53;;
16973;SDS011;8603;46.944;7.412;2023-04-22T04:38:37;12.23;;;6.97;;
16973;SDS011;8603;46.944;7.412;2023-04-22T04:41:05;11.37;;;7.30;;
16973;SDS011;8603;46.944;7.412;2023-04-22T04:43:33;11.10;;;7.87;;
16973;SDS011;8603;46.944;7.412;2023-04-22T04:45:59;7.63;;;6.87;;
16973;SDS011;8603;46.944;7.412;2023-04-22T04:48:26;7.60;;;6.77;;
16973;SDS011;8603;46.944;7.412;2023-04-22T04:50:52;10.97;;;7.37;;
16973;SDS011;8603;46.944;7.412;2023-04-22T04:53:21;13.30;;;7.87;;
16973;SDS011;8603;46.944;7.412;2023-04-22T04:55:47;11.80;;;7.90;;
16973;SDS011;8603;46.944;7.412;2023-04-22T04:58:12;15.50;;;8.70;;
16973;SDS011;8603;46.944;7.412;2023-04-22T05:00:38;11.50;;;8.70;;
16973;SDS011;8603;46.944;7.412;2023-04-22T05:03:04;12.70;;;9.07;;
16973;SDS011;8603;46.944;7.412;2023-04-22T05:05:29;14.57;;;11.07;;
16973;SDS011;8603;46.944;7.412;2023-04-22T05:07:55;15.47;;;10.30;;
16973;SDS011;8603;46.944;7.412;2023-04-22T05:10:21;11.33;;;9.17;;
16973;SDS011;8603;46.944;7.412;2023-04-22T05:12:49;11.73;;;8.70;;
16973;SDS011;8603;46.944;7.412;2023-04-22T05:15:15;13.90;;;9.53;;
16973;SDS011;8603;46.944;7.412;2023-04-22T05:17:41;12.63;;;9.37;;
16973;SDS011;8603;46.944;7.412;2023-04-22T05:20:07;10.83;;;8.93;;
16973;SDS011;8603;46.944;7.412;2023-04-22T05:22:33;11.33;;;9.00;;
16973;SDS011;8603;46.944;7.412;2023-04-22T05:25:00;10.70;;;9.03;;
16973;SDS011;8603;46.944;7.412;2023-04-22T05:27:27;9.90;;;8.67;;
16973;SDS011;8603;46.944;7.412;2023-04-22T05:29:55;11.83;;;9.33;;
16973;SDS011;8603;46.944;7.412;2023-04-22T05:32:21;9.87;;;8.33;;
16973;SDS011;8603;46.944;7.412;2023-04-22T05:34:46;9.80;;;8.53;;
16973;SDS011;8603;46.944;7.412;2023-04-22T05:37:12;11.37;;;9.10;;
16973;SDS011;8603;46.944;7.412;2023-04-22T05:39:38;10.83;;;9.37;;
16973;SDS011;8603;46.944;7.412;2023-04-22T05:42:04;10.70;;;9.60;;
16973;SDS011;8603;46.944;7.412;2023-04-22T05:44:29;10.97;;;9.20;;
16973;SDS011;8603;46.944;7.412;2023-04-22T05:46:55;10.07;;;8.87;;
16973;SDS011;8603;46.944;7.412;2023-04-22T05:49:21;9.33;;;8.33;;
16973;SDS011;8603;46.944;7.412;2023-04-22T05:51:46;10.33;;;8.83;;
16973;SDS011;8603;46.944;7.412;2023-04-22T05:54:12;6.90;;;6.20;;
16973;SDS011;8603;46.944;7.412;2023-04-22T05:56:38;7.53;;;6.80;;
16973;SDS011;8603;46.944;7.412;2023-04-22T05:59:03;8.17;;;7.37;;
16973;SDS011;8603;46.944;7.412;2023-04-22T06:01:29;8.13;;;7.27;;
16973;SDS011;8603;46.944;7.412;2023-04-22T06:03:55;8.17;;;7.03;;
16973;SDS011;8603;46.944;7.412;2023-04-22T06:06:21;7.27;;;6.47;;
16973;SDS011;8603;46.944;7.412;2023-04-22T06:08:50;6.47;;;4.80;;
16973;SDS011;8603;46.944;7.412;2023-04-22T06:11:15;3.80;;;3.50;;
16973;SDS011;8603;46.944;7.412;2023-04-22T06:13:41;3.77;;;3.47;;
16973;SDS011;8603;46.944;7.412;2023-04-22T06:16:07;4.97;;;4.47;;
16973;SDS011;8603;46.944;7.412;2023-04-22T06:18:33;3.70;;;3.30;;
16973;SDS011;8603;46.944;7.412;2023-04-22T06:21:03;4.67;;;3.03;;
16973;SDS011;8603;46.944;7.412;2023-04-22T06:23:29;4.80;;;3.10;;
16973;SDS011;8603;46.944;7.412;2023-04-22T06:25:55;3.70;;;3.27;;
16973;SDS011;8603;46.944;7.412;2023-04-22T06:28:22;3.53;;;3.03;;
16973;SDS011;8603;46.944;7.412;2023-04-22T06:30:48;5.47;;;3.47;;
16973;SDS011;8603;46.944;7.412;2023-04-22T06:33:14;5.27;;;3.10;;
16973;SDS011;8603;46.944;7.412;2023-04-22T06:35:43;3.73;;;2.90;;
16973;SDS011;8603;46.944;7.412;2023-04-22T06:38:12;3.70;;;3.40;;
16973;SDS011;8603;46.944;7.412;2023-04-22T06:40:37;4.00;;;3.07;;
16973;SDS011;8603;46.944;7.412;2023-04-22T06:43:03;3.70;;;3.40;;
16973;SDS011;8603;46.944;7.412;2023-04-22T06:45:29;3.70;;;3.40;;
16973;SDS011;8603;46.944;7.412;2023-04-22T06:47:55;5.20;;;3.53;;
16973;SDS011;8603;46.944;7.412;2023-04-22T06:50:20;4.03;;;3.07;;
16973;SDS011;8603;46.944;7.412;2023-04-22T06:52:46;4.00;;;3.37;;
16973;SDS011;8603;46.944;7.412;2023-04-22T06:55:12;4.47;;;3.60;;
16973;SDS011;8603;46.944;7.412;2023-04-22T06:57:38;3.63;;;3.33;;
16973;SDS011;8603;46.944;7.412;2023-04-22T07:00:06;4.03;;;3.50;;
16973;SDS011;8603;46.944;7.412;2023-04-22T07:02:35;4.40;;;3.00;;
16973;SDS011;8603;46.944;7.412;2023-04-22T07:05:03;3.77;;;3.47;;
16973;SDS011;8603;46.944;7.412;2023-04-22T07:07:32;4.77;;;4.13;;
16973;SDS011;8603;46.944;7.412;2023-04-22T07:09:58;5.93;;;3.93;;
16973;SDS011;8603;46.944;7.412;2023-04-22T07:12:23;3.40;;;3.10;;
16973;SDS011;8603;46.944;7.412;2023-04-22T07:14:49;4.33;;;3.93;;
16973;SDS011;8603;46.944;7.412;2023-04-22T07:17:15;4.03;;;3.63;;
16973;SDS011;8603;46.944;7.412;2023-04-22T07:19:46;3.97;;;3.57;;
16973;SDS011;8603;46.944;7.412;2023-04-22T07:22:12;4.57;;;4.03;;
16973;SDS011;8603;46.944;7.412;2023-04-22T07:24:43;4.10;;;3.67;;
16973;SDS011;8603;46.944;7.412;2023-04-22T07:27:09;5.03;;;4.33;;
16973;SDS011;8603;46.944;7.412;2023-04-22T07:29:35;4.17;;;3.70;;
16973;SDS011;8603;46.944;7.412;2023-04-22T07:32:00;4.13;;;3.72;;
16973;SDS011;8603;46.944;7.412;2023-04-22T07:34:26;4.50;;;3.38;;
16973;SDS011;8603;46.944;7.412;2023-04-22T07:36:52;4.38;;;3.33;;
16973;SDS011;8603;46.944;7.412;2023-04-22T07:39:18;4.40;;;2.70;;
16973;SDS011;8603;46.944;7.412;2023-04-22T07:41:43;3.42;;;3.10;;
16973;SDS011;8603;46.944;7.412;2023-04-22T07:44:09;2.75;;;2.50;;
16973;SDS011;8603;46.944;7.412;2023-04-22T07:46:37;3.75;;;2.83;;
16973;SDS011;8603;46.944;7.412;2023-04-22T07:49:05;3.28;;;2.70;;
16973;SDS011;8603;46.944;7.412;2023-04-22T07:51:31;3.38;;;3.17;;
16973;SDS011;8603;46.944;7.412;2023-04-22T07:53:56;3.53;;;3.22;;
16973;SDS011;8603;46.944;7.412;2023-04-22T07:56:22;3.00;;;2.80;;
16973;SDS011;8603;46.944;7.412;2023-04-22T07:58:53;3.67;;;2.83;;
16973;SDS011;8603;46.944;7.412;2023-04-22T08:01:19;2.83;;;2.63;;
16973;SDS011;8603;46.944;7.412;2023-04-22T08:03:47;2.72;;;2.53;;
16973;SDS011;8603;46.944;7.412;2023-04-22T08:06:13;3.33;;;3.03;;
16973;SDS011;8603;46.944;7.412;2023-04-22T08:08:39;3.03;;;2.83;;
16973;SDS011;8603;46.944;7.412;2023-04-22T08:11:05;3.83;;;3.05;;
16973;SDS011;8603;46.944;7.412;2023-04-22T08:13:32;3.95;;;2.92;;
16973;SDS011;8603;46.944;7.412;2023-04-22T08:15:58;3.30;;;3.00;;
16973;SDS011;8603;46.944;7.412;2023-04-22T08:18:24;3.50;;;2.85;;
16973;SDS011;8603;46.944;7.412;2023-04-22T08:20:58;3.10;;;2.80;;
16973;SDS011;8603;46.944;7.412;2023-04-22T08:23:24;3.00;;;2.80;;
16973;SDS011;8603;46.944;7.412;2023-04-22T08:25:49;4.00;;;2.55;;
16973;SDS011;8603;46.944;7.412;2023-04-22T08:28:16;3.00;;;2.80;;
16973;SDS011;8603;46.944;7.412;2023-04-22T08:30:42;2.53;;;2.33;;
16973;SDS011;8603;46.944;7.412;2023-04-22T08:33:10;2.95;;;2.65;;
16973;SDS011;8603;46.944;7.412;2023-04-22T08:35:36;2.75;;;2.55;;
16973;SDS011;8603;46.944;7.412;2023-04-22T08:38:11;2.53;;;2.33;;
16973;SDS011;8603;46.944;7.412;2023-04-22T08:43:24;3.08;;;2.78;;
16973;SDS011;8603;46.944;7.412;2023-04-22T08:45:52;2.72;;;2.53;;
16973;SDS011;8603;46.944;7.412;2023-04-22T08:48:31;2.70;;;2.50;;
16973;SDS011;8603;46.944;7.412;2023-04-22T08:50:57;3.10;;;2.80;;
16973;SDS011;8603;46.944;7.412;2023-04-22T08:53:23;2.78;;;2.58;;
16973;SDS011;8603;46.944;7.412;2023-04-22T08:55:49;3.25;;;2.60;;
16973;SDS011;8603;46.944;7.412;2023-04-22T08:58:16;3.03;;;2.83;;
16973;SDS011;8603;46.944;7.412;2023-04-22T09:00:44;3.40;;;2.50;;
16973;SDS011;8603;46.944;7.412;2023-04-22T09:03:10;3.28;;;3.08;;
16973;SDS011;8603;46.944;7.412;2023-04-22T09:05:36;4.88;;;3.00;;
16973;SDS011;8603;46.944;7.412;2023-04-22T09:08:04;4.40;;;3.08;;
16973;SDS011;8603;46.944;7.412;2023-04-22T09:10:31;3.65;;;3.05;;
16973;SDS011;8603;46.944;7.412;2023-04-22T09:13:03;4.35;;;3.20;;
16973;SDS011;8603;46.944;7.412;2023-04-22T09:15:42;4.55;;;3.85;;
16973;SDS011;8603;46.944;7.412;2023-04-22T09:21:09;3.70;;;3.40;;
16973;SDS011;8603;46.944;7.412;2023-04-22T09:23:54;3.63;;;3.33;;
16973;SDS011;8603;46.944;7.412;2023-04-22T09:26:26;3.17;;;2.88;;
16973;SDS011;8603;46.944;7.412;2023-04-22T09:28:53;4.13;;;3.83;;
16973;SDS011;8603;46.944;7.412;2023-04-22T09:31:23;3.90;;;3.55;;
16973;SDS011;8603;46.944;7.412;2023-04-22T09:33:58;4.30;;;3.90;;
16973;SDS011;8603;46.944;7.412;2023-04-22T09:36:39;4.05;;;3.75;;
16973;SDS011;8603;46.944;7.412;2023-04-22T09:42:19;4.88;;;4.47;;
16973;SDS011;8603;46.944;7.412;2023-04-22T09:44:46;4.50;;;4.10;;
16973;SDS011;8603;46.944;7.412;2023-04-22T09:47:28;5.80;;;4.53;;
16973;SDS011;8603;46.944;7.412;2023-04-22T09:57:10;4.45;;;4.05;;
16973;SDS011;8603;46.944;7.412;2023-04-22T10:00:13;7.10;;;4.40;;
16973;SDS011;8603;46.944;7.412;2023-04-22T10:03:03;5.03;;;4.57;;
16973;SDS011;8603;46.944;7.412;2023-04-22T10:08:58;5.82;;;4.40;;
16973;SDS011;8603;46.944;7.412;2023-04-22T10:20:19;4.40;;;3.95;;
16973;SDS011;8603;46.944;7.412;2023-04-22T10:23:02;4.45;;;4.05;;
16973;SDS011;8603;46.944;7.412;2023-04-22T10:29:04;4.15;;;3.75;;
16973;SDS011;8603;46.944;7.412;2023-04-22T10:31:52;4.90;;;3.60;;
16973;SDS011;8603;46.944;7.412;2023-04-22T10:37:33;3.58;;;3.28;;
16973;SDS011;8603;46.944;7.412;2023-04-22T10:40:18;5.13;;;3.60;;
16973;SDS011;8603;46.944;7.412;2023-04-22T10:42:57;3.92;;;3.53;;
16973;SDS011;8603;46.944;7.412;2023-04-22T10:45:52;4.00;;;3.60;;
16973;SDS011;8603;46.944;7.412;2023-04-22T10:48:47;4.47;;;3.50;;
16973;SDS011;8603;46.944;7.412;2023-04-22T10:57:11;3.33;;;3.03;;
16973;SDS011;8603;46.944;7.412;2023-04-22T10:59:52;3.38;;;2.78;;
16973;SDS011;8603;46.944;7.412;2023-04-22T11:02:20;2.83;;;2.63;;
16973;SDS011;8603;46.944;7.412;2023-04-22T11:04:47;3.28;;;2.95;;
16973;SDS011;8603;46.944;7.412;2023-04-22T11:10:43;3.75;;;2.60;;
16973;SDS011;8603;46.944;7.412;2023-04-22T11:13:19;3.33;;;2.90;;
16973;SDS011;8603;46.944;7.412;2023-04-22T11:15:50;3.30;;;3.00;;
16973;SDS011;8603;46.944;7.412;2023-04-22T11:18:22;3.20;;;2.90;;
16973;SDS011;8603;46.944;7.412;2023-04-22T11:20:50;3.05;;;2.70;;
16973;SDS011;8603;46.944;7.412;2023-04-22T11:23:20;3.60;;;2.47;;
16973;SDS011;8603;46.944;7.412;2023-04-22T11:28:28;3.10;;;2.58;;
16973;SDS011;8603;46.944;7.412;2023-04-22T11:31:01;3.03;;;2.72;;
16973;SDS011;8603;46.944;7.412;2023-04-22T11:33:31;3.20;;;2.90;;
16973;SDS011;8603;46.944;7.412;2023-04-22T11:36:20;3.60;;;2.80;;
16973;SDS011;8603;46.944;7.412;2023-04-22T11:38:56;3.75;;;2.42;;
16973;SDS011;8603;46.944;7.412;2023-04-22T11:41:50;5.13;;;2.78;;
16973;SDS011;8603;46.944;7.412;2023-04-22T11:44:15;3.10;;;2.65;;
16973;SDS011;8603;46.944;7.412;2023-04-22T11:46:42;4.55;;;2.85;;
16973;SDS011;8603;46.944;7.412;2023-04-22T11:49:15;3.17;;;2.83;;
16973;SDS011;8603;46.944;7.412;2023-04-22T11:51:51;2.80;;;2.60;;
16973;SDS011;8603;46.944;7.412;2023-04-22T11:54:27;3.40;;;3.00;;
16973;SDS011;8603;46.944;7.412;2023-04-22T11:57:01;3.70;;;2.63;;
16973;SDS011;8603;46.944;7.412;2023-04-22T11:59:38;4.68;;;2.75;;
16973;SDS011;8603;46.944;7.412;2023-04-22T12:02:22;3.13;;;2.83;;
16973;SDS011;8603;46.944;7.412;2023-04-22T12:04:50;5.35;;;2.95;;
16973;SDS011;8603;46.944;7.412;2023-04-22T12:07:19;3.40;;;3.10;;
16973;SDS011;8603;46.944;7.412;2023-04-22T12:09:52;3.50;;;2.88;;
16973;SDS011;8603;46.944;7.412;2023-04-22T12:12:24;4.35;;;3.30;;
16973;SDS011;8603;46.944;7.412;2023-04-22T12:14:59;3.50;;;2.67;;
16973;SDS011;8603;46.944;7.412;2023-04-22T12:17:43;3.97;;;3.20;;
16973;SDS011;8603;46.944;7.412;2023-04-22T12:20:12;4.47;;;3.03;;
16973;SDS011;8603;46.944;7.412;2023-04-22T12:22:37;3.17;;;2.70;;
16973;SDS011;8603;46.944;7.412;2023-04-22T12:25:03;2.70;;;2.50;;
16973;SDS011;8603;46.944;7.412;2023-04-22T12:27:29;3.60;;;2.78;;
16973;SDS011;8603;46.944;7.412;2023-04-22T12:29:55;3.10;;;2.80;;
16973;SDS011;8603;46.944;7.412;2023-04-22T12:32:22;2.80;;;2.55;;
16973;SDS011;8603;46.944;7.412;2023-04-22T12:34:50;4.60;;;3.20;;
16973;SDS011;8603;46.944;7.412;2023-04-22T12:37:32;4.70;;;3.35;;
16973;SDS011;8603;46.944;7.412;2023-04-22T12:40:04;4.07;;;3.67;;
16973;SDS011;8603;46.944;7.412;2023-04-22T12:42:31;5.75;;;4.90;;
16973;SDS011;8603;46.944;7.412;2023-04-22T12:44:59;5.85;;;5.32;;
16973;SDS011;8603;46.944;7.412;2023-04-22T12:47:28;6.47;;;5.43;;
16973;SDS011;8603;46.944;7.412;2023-04-22T12:49:54;7.22;;;5.43;;
16973;SDS011;8603;46.944;7.412;2023-04-22T12:52:19;8.05;;;5.80;;
16973;SDS011;8603;46.944;7.412;2023-04-22T12:54:45;6.35;;;5.75;;
16973;SDS011;8603;46.944;7.412;2023-04-22T12:57:13;6.40;;;5.60;;
16973;SDS011;8603;46.944;7.412;2023-04-22T12:59:39;5.90;;;5.30;;
16973;SDS011;8603;46.944;7.412;2023-04-22T13:02:08;6.90;;;6.13;;
16973;SDS011;8603;46.944;7.412;2023-04-22T13:04:33;6.45;;;5.85;;
16973;SDS011;8603;46.944;7.412;2023-04-22T13:06:59;6.88;;;5.90;;
16973;SDS011;8603;46.944;7.412;2023-04-22T13:09:24;6.25;;;5.40;;
16973;SDS011;8603;46.944;7.412;2023-04-22T13:11:51;5.35;;;4.85;;
16973;SDS011;8603;46.944;7.412;2023-04-22T13:14:19;5.65;;;5.10;;
16973;SDS011;8603;46.944;7.412;2023-04-22T13:16:45;5.63;;;5.05;;
16973;SDS011;8603;46.944;7.412;2023-04-22T13:19:11;8.57;;;6.10;;
16973;SDS011;8603;46.944;7.412;2023-04-22T13:21:37;6.05;;;5.45;;
16973;SDS011;8603;46.944;7.412;2023-04-22T13:24:03;7.47;;;6.10;;
16973;SDS011;8603;46.944;7.412;2023-04-22T13:26:28;7.10;;;5.68;;
16973;SDS011;8603;46.944;7.412;2023-04-22T13:28:55;7.60;;;6.30;;
16973;SDS011;8603;46.944;7.412;2023-04-22T13:31:20;6.15;;;5.55;;
16973;SDS011;8603;46.944;7.412;2023-04-22T13:33:46;6.55;;;5.50;;
16973;SDS011;8603;46.944;7.412;2023-04-22T13:36:12;5.85;;;4.93;;
16973;SDS011;8603;46.944;7.412;2023-04-22T13:38:37;6.93;;;6.05;;
16973;SDS011;8603;46.944;7.412;2023-04-22T13:41:03;8.02;;;6.13;;
16973;SDS011;8603;46.944;7.412;2023-04-22T13:43:29;7.93;;;5.97;;
16973;SDS011;8603;46.944;7.412;2023-04-22T13:45:54;7.57;;;5.80;;
16973;SDS011;8603;46.944;7.412;2023-04-22T13:48:20;7.30;;;6.55;;
16973;SDS011;8603;46.944;7.412;2023-04-22T13:50:46;5.57;;;5.07;;
16973;SDS011;8603;46.944;7.412;2023-04-22T13:53:14;7.35;;;6.63;;
16973;SDS011;8603;46.944;7.412;2023-04-22T13:55:39;6.13;;;5.53;;
16973;SDS011;8603;46.944;7.412;2023-04-22T13:58:07;6.95;;;6.07;;
16973;SDS011;8603;46.944;7.412;2023-04-22T14:00:33;6.85;;;6.15;;
16973;SDS011;8603;46.944;7.412;2023-04-22T14:02:59;8.48;;;6.07;;
16973;SDS011;8603;46.944;7.412;2023-04-22T14:05:25;7.55;;;6.22;;
16973;SDS011;8603;46.944;7.412;2023-04-22T14:07:54;8.32;;;5.85;;
16973;SDS011;8603;46.944;7.412;2023-04-22T14:10:20;7.45;;;5.50;;
16973;SDS011;8603;46.944;7.412;2023-04-22T14:12:46;6.55;;;5.95;;
16973;SDS011;8603;46.944;7.412;2023-04-22T14:15:12;7.20;;;5.57;;
16973;SDS011;8603;46.944;7.412;2023-04-22T14:17:38;6.90;;;5.30;;
16973;SDS011;8603;46.944;7.412;2023-04-22T14:20:04;5.40;;;4.90;;
16973;SDS011;8603;46.944;7.412;2023-04-22T14:22:31;7.82;;;5.80;;
16973;SDS011;8603;46.944;7.412;2023-04-22T14:24:57;6.47;;;5.88;;
16973;SDS011;8603;46.944;7.412;2023-04-22T14:27:23;10.10;;;6.57;;
16973;SDS011;8603;46.944;7.412;2023-04-22T14:29:49;7.80;;;6.85;;
16973;SDS011;8603;46.944;7.412;2023-04-22T14:32:16;8.77;;;7.65;;
16973;SDS011;8603;46.944;7.412;2023-04-22T14:34:43;7.80;;;6.88;;
16973;SDS011;8603;46.944;7.412;2023-04-22T14:37:09;8.27;;;6.35;;
16973;SDS011;8603;46.944;7.412;2023-04-22T14:39:35;9.15;;;7.53;;
16973;SDS011;8603;46.944;7.412;2023-04-22T14:42:01;8.27;;;7.28;;
16973;SDS011;8603;46.944;7.412;2023-04-22T14:44:27;10.32;;;7.88;;
16973;SDS011;8603;46.944;7.412;2023-04-22T14:46:53;9.75;;;7.05;;
16973;SDS011;8603;46.944;7.412;2023-04-22T14:49:18;8.68;;;7.20;;
16973;SDS011;8603;46.944;7.412;2023-04-22T14:51:47;7.97;;;7.10;;
16973;SDS011;8603;46.944;7.412;2023-04-22T14:54:13;7.25;;;6.55;;
16973;SDS011;8603;46.944;7.412;2023-04-22T14:56:39;7.90;;;6.18;;
16973;SDS011;8603;46.944;7.412;2023-04-22T14:59:04;9.38;;;7.20;;
16973;SDS011;8603;46.944;7.412;2023-04-22T15:01:30;8.32;;;7.40;;
16973;SDS011;8603;46.944;7.412;2023-04-22T15:03:56;7.35;;;6.65;;
16973;SDS011;8603;46.944;7.412;2023-04-22T15:06:22;8.35;;;7.03;;
16973;SDS011;8603;46.944;7.412;2023-04-22T15:08:48;8.57;;;6.88;;
16973;SDS011;8603;46.944;7.412;2023-04-22T15:11:15;7.97;;;7.15;;
16973;SDS011;8603;46.944;7.412;2023-04-22T15:13:41;8.15;;;6.70;;
16973;SDS011;8603;46.944;7.412;2023-04-22T15:16:07;7.72;;;7.00;;
16973;SDS011;8603;46.944;7.412;2023-04-22T15:18:32;7.20;;;6.50;;
16973;SDS011;8603;46.944;7.412;2023-04-22T15:20:58;9.35;;;7.10;;
16973;SDS011;8603;46.944;7.412;2023-04-22T15:23:24;8.65;;;6.75;;
16973;SDS011;8603;46.944;7.412;2023-04-22T15:25:49;7.90;;;6.78;;
16973;SDS011;8603;46.944;7.412;2023-04-22T15:28:15;9.13;;;6.80;;
16973;SDS011;8603;46.944;7.412;2023-04-22T15:30:41;6.47;;;5.00;;
16973;SDS011;8603;46.944;7.412;2023-04-22T15:33:07;7.68;;;5.28;;
16973;SDS011;8603;46.944;7.412;2023-04-22T15:35:33;5.80;;;5.13;;
16973;SDS011;8603;46.944;7.412;2023-04-22T15:37:58;7.80;;;6.35;;
16973;SDS011;8603;46.944;7.412;2023-04-22T15:40:25;7.25;;;5.57;;
16973;SDS011;8603;46.944;7.412;2023-04-22T15:42:50;6.78;;;5.60;;
16973;SDS011;8603;46.944;7.412;2023-04-22T15:45:16;7.03;;;5.45;;
16973;SDS011;8603;46.944;7.412;2023-04-22T15:47:42;6.95;;;5.70;;
16973;SDS011;8603;46.944;7.412;2023-04-22T15:50:07;6.03;;;5.38;;